| time (UTC) | temp C | wind direction | speed KPH | gust KPH | rain 1hr cm | rain 24hr cm | rain mn cm | humidity % | barometer mb |
| 20260507063018 | 10 | 195 | 0.0 | 1.6 | 0.00 | 0.00 | 0.00 | 1 | 1021.6 |
| 20260507061523 | 10 | 229 | 0.0 | 1.6 | 0.00 | 0.00 | 0.00 | 1 | 1021.7 |
| 20260507060026 | 10 | 232 | 0.0 | 0.0 | 0.00 | 0.00 | 0.00 | 1 | 1021.6 |
| 20260507054525 | 10 | 212 | 0.0 | 0.0 | 0.00 | 0.00 | 0.00 | 1 | 1021.6 |
| 20260507053030 | 10 | 222 | 0.0 | 0.0 | 0.00 | 0.00 | 0.00 | 1 | 1021.5 |
| 20260507051533 | 11 | 188 | 0.0 | 0.0 | 0.00 | 0.00 | 0.00 | 13 | 1021.5 |
| 20260507050045 | 11 | 283 | 0.0 | 0.0 | 0.00 | 0.00 | 0.00 | 28 | 1021.4 |
| 20260507044546 | 11 | 294 | 0.0 | 11.3 | 0.00 | 0.00 | 0.00 | 33 | 1021.3 |
| 20260507043044 | 11 | 289 | 0.0 | 11.3 | 0.00 | 0.00 | 0.00 | 34 | 1021.3 |
| 20260507041600 | 12 | 238 | 0.0 | 3.2 | 0.00 | 0.00 | 0.00 | 33 | 1021.1 |
| 20260507040054 | 11 | 256 | 0.0 | 0.0 | 0.00 | 0.00 | 0.00 | 25 | 1021.0 |
| 20260507034603 | 12 | 256 | 0.0 | 1.6 | 0.00 | 0.00 | 0.00 | 32 | 1020.8 |
| 20260507033100 | 12 | 262 | 0.0 | 0.0 | 0.00 | 0.00 | 0.00 | 40 | 1020.6 |
| 20260507031604 | 13 | 273 | 0.0 | 0.0 | 0.00 | 0.00 | 0.00 | 47 | 1020.5 |
| 20260507030004 | 13 | 312 | 0.0 | 4.8 | 0.00 | 0.00 | 0.00 | 54 | 1020.5 |
| 20260507024508 | 14 | 271 | 0.0 | 4.8 | 0.00 | 0.00 | 0.00 | 60 | 1020.4 |
| 20260507023009 | 15 | 342 | 0.0 | 1.6 | 0.00 | 0.00 | 0.00 | 64 | 1020.2 |
| 20260507021513 | 16 | 29 | 1.6 | 8.0 | 0.00 | 0.00 | 0.00 | 65 | 1020.3 |
| 20260507020017 | 16 | 8 | 1.6 | 8.0 | 0.00 | 0.00 | 0.00 | 65 | 1020.3 |
| 20260507014522 | 17 | 341 | 0.0 | 8.0 | 0.00 | 0.00 | 0.00 | 64 | 1020.4 |
| 20260507013025 | 17 | 39 | 0.0 | 6.4 | 0.00 | 0.00 | 0.00 | 64 | 1020.3 |
| 20260507011538 | 17 | 343 | 3.2 | 11.3 | 0.00 | 0.00 | 0.00 | 63 | 1020.3 |
| 20260507010042 | 18 | 1 | 1.6 | 9.7 | 0.00 | 0.00 | 0.00 | 62 | 1020.3 |
| 20260507004538 | 17 | 321 | 0.0 | 11.3 | 0.00 | 0.00 | 0.00 | 63 | 1020.3 |
| 20260507003051 | 18 | 354 | 0.0 | 14.5 | 0.00 | 0.00 | 0.00 | 62 | 1020.2 |
| 20260507001605 | 18 | 273 | 0.0 | 9.7 | 0.00 | 0.00 | 0.00 | 62 | 1020.1 |
| 20260507000124 | 18 | 4 | 1.6 | 9.7 | 0.00 | 0.00 | 0.00 | 63 | 1020.1 |
| 20260506234627 | 18 | 5 | 4.8 | 16.1 | 0.00 | 0.00 | 0.00 | 62 | 1020.0 |
| 20260506233003 | 18 | 257 | 0.0 | 14.5 | 0.00 | 0.00 | 0.00 | 62 | 1020.0 |
| 20260506231507 | 18 | 5 | 4.8 | 17.7 | 0.00 | 0.00 | 0.00 | 62 | 1020.1 |
| 20260506230011 | 19 | 328 | 4.8 | 19.3 | 0.00 | 0.00 | 0.00 | 61 | 1020.2 |
| 20260506224515 | 19 | 18 | 3.2 | 16.1 | 0.00 | 0.00 | 0.00 | 61 | 1020.3 |
| 20260506223019 | 19 | 12 | 6.4 | 11.3 | 0.00 | 0.00 | 0.00 | 62 | 1020.4 |
| 20260506221522 | 18 | 58 | 0.0 | 11.3 | 0.00 | 0.00 | 0.00 | 62 | 1020.4 |
| 20260506220030 | 18 | 51 | 3.2 | 12.9 | 0.00 | 0.00 | 0.00 | 62 | 1020.5 |
| 20260506214531 | 18 | 37 | 8.0 | 17.7 | 0.00 | 0.00 | 0.00 | 63 | 1020.5 |
| 20260506213042 | 18 | 45 | 1.6 | 11.3 | 0.00 | 0.00 | 0.00 | 62 | 1020.6 |
| 20260506211545 | 19 | 33 | 6.4 | 12.9 | 0.00 | 0.00 | 0.00 | 62 | 1020.6 |
| 20260506210047 | 19 | 195 | 0.0 | 6.4 | 0.00 | 0.00 | 0.00 | 62 | 1020.6 |
| 20260506204547 | 17 | 41 | 1.6 | 12.9 | 0.00 | 0.00 | 0.00 | 62 | 1020.8 |
| 20260506203052 | 17 | 101 | 1.6 | 12.9 | 0.00 | 0.00 | 0.00 | 63 | 1020.9 |
| 20260506201554 | 17 | 56 | 6.4 | 19.3 | 0.00 | 0.00 | 0.00 | 62 | 1020.8 |
| 20260506200058 | 18 | 345 | 3.2 | 12.9 | 0.00 | 0.00 | 0.00 | 63 | 1020.9 |
| 20260506194602 | 18 | 10 | 6.4 | 9.7 | 0.00 | 0.00 | 0.00 | 62 | 1021.0 |
| 20260506193001 | 18 | 273 | 0.0 | 8.0 | 0.00 | 0.00 | 0.00 | 62 | 1021.0 |
| 20260506191504 | 17 | 203 | 4.8 | 16.1 | 0.00 | 0.00 | 0.00 | 62 | 1021.0 |
| 20260506190008 | 17 | 188 | 4.8 | 12.9 | 0.00 | 0.00 | 0.00 | 61 | 1021.0 |
| 20260506184512 | 17 | 134 | 4.8 | 12.9 | 0.00 | 0.00 | 0.00 | 61 | 1021.0 |
| 20260506183016 | 17 | 156 | 1.6 | 9.7 | 0.00 | 0.00 | 0.00 | 60 | 1021.0 |
| 20260506181535 | 17 | 158 | 0.0 | 3.2 | 0.00 | 0.00 | 0.00 | 60 | 1021.2 |
| 20260506180025 | 17 | 145 | 3.2 | 8.0 | 0.00 | 0.00 | 0.00 | 60 | 1021.1 |
| 20260506174533 | 16 | 155 | 3.2 | 8.0 | 0.00 | 0.00 | 0.00 | 57 | 1020.9 |
| 20260506173055 | 16 | 114 | 1.6 | 8.0 | 0.00 | 0.00 | 0.00 | 54 | 1020.8 |
| 20260506171542 | 15 | 225 | 0.0 | 6.4 | 0.00 | 0.00 | 0.00 | 56 | 1021.3 |
| 20260506170052 | 16 | 158 | 0.0 | 6.4 | 0.00 | 0.00 | 0.00 | 53 | 1021.2 |
| 20260506164544 | 15 | 80 | 0.0 | 4.8 | 0.00 | 0.00 | 0.00 | 42 | 1021.0 |
| 20260506163054 | 14 | 139 | 0.0 | 3.2 | 0.00 | 0.00 | 0.00 | 30 | 1021.4 |
| 20260506161549 | 13 | 95 | 0.0 | 6.4 | 0.00 | 0.00 | 0.00 | 5 | 1021.3 |
| 20260506160052 | 12 | 169 | 0.0 | 3.2 | 0.00 | 0.00 | 0.00 | 1 | 1021.0 |
| 20260506154612 | 12 | 127 | 0.0 | 6.4 | 0.00 | 0.00 | 0.00 | 1 | 1020.7 |
| 20260506153100 | 12 | 143 | 0.0 | 4.8 | 0.00 | 0.00 | 0.00 | 1 | 1021.1 |
| 20260506151603 | 12 | 141 | 0.0 | 1.6 | 0.00 | 0.00 | 0.00 | 1 | 1021.3 |
| 20260506150010 | 12 | 148 | 0.0 | 3.2 | 0.00 | 0.00 | 0.00 | 1 | 1021.1 |
| 20260506144508 | 12 | 250 | 0.0 | 1.6 | 0.00 | 0.00 | 0.00 | 1 | 1021.3 |
| 20260506143022 | 11 | 225 | 0.0 | 3.2 | 0.00 | 0.00 | 0.00 | 1 | 1021.0 |
| 20260506141514 | 11 | 219 | 0.0 | 3.2 | 0.00 | 0.00 | 0.00 | 1 | 1020.7 |
| 20260506140020 | 11 | 229 | 0.0 | 3.2 | 0.00 | 0.00 | 0.00 | 1 | 1020.3 |
| 20260506134523 | 11 | 209 | 0.0 | 3.2 | 0.00 | 0.00 | 0.00 | 1 | 1020.2 |
| 20260506133034 | 11 | 233 | 0.0 | 3.2 | 0.00 | 0.00 | 0.00 | 1 | 1020.1 |
| 20260506131529 | 11 | 205 | 0.0 | 0.0 | 0.00 | 0.00 | 0.00 | 1 | 1020.2 |
| 20260506130035 | 11 | 205 | 0.0 | 4.8 | 0.00 | 0.00 | 0.00 | 1 | 1019.9 |
| 20260506124536 | 11 | 176 | 0.0 | 1.6 | 0.00 | 0.00 | 0.00 | 1 | 1019.9 |
| 20260506123040 | 11 | 121 | 0.0 | 0.0 | 0.00 | 0.00 | 0.00 | 1 | 1019.8 |
| 20260506121551 | 11 | 122 | 0.0 | 0.0 | 0.00 | 0.00 | 0.00 | 1 | 1020.0 |
| 20260506120054 | 11 | 121 | 0.0 | 1.6 | 0.00 | 0.00 | 0.00 | 1 | 1019.8 |
| 20260506114605 | 11 | 124 | 0.0 | 0.0 | 0.00 | 0.00 | 0.00 | 1 | 1019.7 |
| 20260506113102 | 11 | 144 | 0.0 | 0.0 | 0.00 | 0.00 | 0.00 | 1 | 1019.6 |
| 20260506111502 | 11 | 204 | 0.0 | 0.0 | 0.00 | 0.00 | 0.00 | 1 | 1019.3 |
| 20260506110006 | 11 | 204 | 0.0 | 0.0 | 0.00 | 0.00 | 0.00 | 1 | 1019.2 |
| 20260506104527 | 11 | 204 | 0.0 | 0.0 | 0.00 | 0.00 | 0.00 | 1 | 1018.9 |
| 20260506103014 | 11 | 204 | 0.0 | 0.0 | 0.00 | 0.00 | 0.00 | 1 | 1018.8 |
| 20260506101518 | 11 | 200 | 0.0 | 3.2 | 0.00 | 0.00 | 0.00 | 1 | 1018.6 |
| 20260506100022 | 11 | 193 | 0.0 | 1.6 | 0.00 | 0.00 | 0.00 | 1 | 1018.5 |
| 20260506094532 | 11 | 169 | 0.0 | 1.6 | 0.00 | 0.00 | 0.00 | 1 | 1018.4 |
| 20260506093028 | 11 | 156 | 0.0 | 0.0 | 0.00 | 0.00 | 0.00 | 1 | 1018.2 |
| 20260506091532 | 11 | 156 | 0.0 | 0.0 | 0.00 | 0.00 | 0.00 | 1 | 1018.2 |
| 20260506090042 | 10 | 156 | 0.0 | 0.0 | 0.00 | 0.00 | 0.00 | 1 | 1018.2 |
| 20260506084537 | 11 | 156 | 0.0 | 0.0 | 0.00 | 0.00 | 0.00 | 1 | 1018.1 |
| 20260506083043 | 11 | 156 | 0.0 | 0.0 | 0.00 | 0.00 | 0.00 | 1 | 1018.0 |
| 20260506081544 | 11 | 156 | 0.0 | 0.0 | 0.00 | 0.00 | 0.00 | 1 | 1017.9 |
| 20260506073055 | 12 | 193 | 0.0 | 3.2 | 0.00 | 0.00 | 0.00 | 1 | 1017.9 |
| 20260506071623 | 12 | 205 | 0.0 | 1.6 | 0.00 | 0.00 | 0.00 | 1 | 1017.8 |
| 20260506070106 | 13 | 138 | 0.0 | 0.0 | 0.00 | 0.00 | 0.00 | 3 | 1017.7 |